Time;durP1;ratioP1;P1;durP2;ratioP2;P2;SDS_P1;SDS_P2;PMS_P1;PMS_P2;Temp;Humidity;BMP_temperature;BMP_pressure;BME280_temperature;BME280_humidity;BME280_pressure;Samples;Min_cycle;Max_cycle;Signal;HPM_P1;HPM_P2
2022/01/08 00:01:20;;;;;;;7.95;5.47;;;;;;;-2.84;49.56;96396.63;1707741;83;21392;-82
2022/01/08 00:03:46;;;;;;;7.28;5.25;;;;;;;-2.82;49.83;96385.09;1703159;83;20964;-82
2022/01/08 00:06:12;;;;;;;6.92;5.12;;;;;;;-2.83;49.59;96379.19;1702589;84;21147;-82
2022/01/08 00:08:38;;;;;;;10.10;7.35;;;;;;;-2.84;49.88;96386.45;1702933;84;21019;-82
2022/01/08 00:11:06;;;;;;;10.48;8.08;;;;;;;-2.85;49.77;96379.75;1702763;84;21013;-82
2022/01/08 00:13:33;;;;;;;7.22;6.40;;;;;;;-2.82;50.16;96378.73;1702788;84;21048;-82
2022/01/08 00:15:59;;;;;;;13.08;7.15;;;;;;;-2.80;49.82;96376.89;1693402;84;21031;-82
2022/01/08 00:18:25;;;;;;;7.37;5.25;;;;;;;-2.80;49.75;96380.25;1680056;85;21024;-82
2022/01/08 00:20:51;;;;;;;7.92;5.03;;;;;;;-2.79;50.07;96379.80;1678345;84;21355;-82
2022/01/08 00:23:16;;;;;;;6.05;4.83;;;;;;;-2.79;50.33;96378.52;1703039;84;20997;-82
2022/01/08 00:25:42;;;;;;;6.78;4.22;;;;;;;-2.78;49.67;96377.15;1702820;84;21000;-82
2022/01/08 00:28:08;;;;;;;6.90;4.78;;;;;;;-2.75;49.66;96370.62;1703119;84;21299;-82
2022/01/08 00:30:33;;;;;;;5.53;4.33;;;;;;;-2.77;50.19;96370.33;1702759;84;21414;-82
2022/01/08 00:32:59;;;;;;;7.05;4.92;;;;;;;-2.77;50.43;96380.08;1698453;83;21004;-82
2022/01/08 00:35:27;;;;;;;6.50;5.15;;;;;;;-2.75;50.39;96374.89;1681671;85;21114;-82
2022/01/08 00:37:53;;;;;;;6.40;5.35;;;;;;;-2.78;50.42;96376.34;1658273;86;21403;-82
2022/01/08 00:40:18;;;;;;;6.53;5.15;;;;;;;-2.77;50.74;96363.97;1658417;86;20976;-82
2022/01/08 00:42:44;;;;;;;7.40;5.28;;;;;;;-2.78;50.91;96371.25;1696810;84;20988;-82
2022/01/08 00:45:10;;;;;;;6.87;5.22;;;;;;;-2.81;50.54;96374.00;1701458;84;21032;-82
2022/01/08 00:47:36;;;;;;;7.20;5.53;;;;;;;-2.81;50.99;96370.19;1706177;83;21008;-82
2022/01/08 00:50:04;;;;;;;6.97;5.42;;;;;;;-2.83;51.10;96363.11;1707614;84;21359;-83
2022/01/08 00:52:30;;;;;;;5.25;4.53;;;;;;;-2.84;51.08;96357.67;1703731;83;21014;-82
2022/01/08 00:54:55;;;;;;;5.67;4.60;;;;;;;-2.85;51.50;96349.69;1698775;83;21356;-82
2022/01/08 00:57:21;;;;;;;7.12;4.87;;;;;;;-2.86;51.56;96343.80;1698260;84;21457;-82
2022/01/08 00:59:47;;;;;;;7.12;5.92;;;;;;;-2.86;51.69;96351.88;1698990;84;21047;-82
2022/01/08 01:02:13;;;;;;;7.33;5.10;;;;;;;-2.87;51.58;96353.61;1713643;83;20972;-82
2022/01/08 01:04:38;;;;;;;6.05;5.05;;;;;;;-2.85;51.70;96353.50;1700808;83;21098;-82
2022/01/08 01:07:04;;;;;;;6.78;5.35;;;;;;;-2.83;51.48;96356.30;1704885;83;21012;-82
2022/01/08 01:09:30;;;;;;;8.58;6.10;;;;;;;-2.82;51.59;96349.03;1695774;84;21173;-82
2022/01/08 01:11:57;;;;;;;5.55;4.65;;;;;;;-2.81;51.73;96349.84;1701207;83;21003;-82
2022/01/08 01:14:24;;;;;;;6.92;6.15;;;;;;;-2.82;52.18;96343.94;1702227;83;20977;-82
2022/01/08 01:16:50;;;;;;;5.67;5.08;;;;;;;-2.82;52.32;96343.13;1707255;82;21011;-82
2022/01/08 01:19:17;;;;;;;7.12;5.50;;;;;;;-2.81;52.49;96338.40;1707299;83;21479;-82
2022/01/08 01:21:42;;;;;;;7.30;5.45;;;;;;;-2.85;52.40;96335.70;1713221;83;21033;-82
2022/01/08 01:24:14;;;;;;;5.92;4.97;;;;;;;-2.90;52.58;96322.03;1703844;83;21047;-82
2022/01/08 01:26:38;;;;;;;9.20;5.67;;;;;;;-2.91;52.77;96321.67;1677121;85;21039;-82
2022/01/08 01:42:40;;;;;;;7.42;5.87;;;;;;;-3.06;53.82;96311.23;1664719;83;21075;-82
2022/01/08 01:47:34;;;;;;;5.45;4.72;;;;;;;-3.07;54.18;96299.44;1704466;83;21034;-82
2022/01/08 01:50:00;;;;;;;5.37;4.97;;;;;;;-3.08;54.23;96299.09;1708495;83;21394;-82
2022/01/08 01:52:25;;;;;;;6.20;4.55;;;;;;;-3.07;54.28;96288.82;1703810;83;21027;-82
2022/01/08 01:54:51;;;;;;;4.92;4.37;;;;;;;-3.04;54.26;96294.16;1683177;85;20995;-82
2022/01/08 01:57:19;;;;;;;6.45;4.80;;;;;;;-3.05;54.31;96293.34;1634650;86;21021;-82
2022/01/08 01:59:44;;;;;;;6.53;5.35;;;;;;;-3.06;54.51;96284.09;1711708;83;21032;-83
2022/01/08 02:02:10;;;;;;;5.78;5.20;;;;;;;-3.04;54.45;96292.42;1701269;83;21498;-82
2022/01/08 02:04:37;;;;;;;5.92;5.08;;;;;;;-3.03;54.61;96291.97;1678839;85;20984;-82
2022/01/08 02:07:03;;;;;;;5.95;4.95;;;;;;;-3.03;54.63;96285.16;1629879;87;21392;-82
2022/01/08 02:09:32;;;;;;;4.97;4.47;;;;;;;-3.04;54.83;96272.55;1626197;87;20985;-82
2022/01/08 02:11:59;;;;;;;6.33;5.28;;;;;;;-3.03;54.94;96275.44;1661355;86;21375;-83
2022/01/08 02:14:30;;;;;;;5.08;4.58;;;;;;;-3.01;54.81;96269.80;1642595;86;21047;-82
2022/01/08 02:16:56;;;;;;;7.22;4.87;;;;;;;-2.94;54.25;96269.73;1700953;84;21040;-82
2022/01/08 02:19:22;;;;;;;5.95;4.78;;;;;;;-2.86;54.44;96265.42;1699365;83;21381;-82
2022/01/08 02:21:55;;;;;;;6.95;4.65;;;;;;;-2.84;54.31;96267.41;1682111;84;21311;-82
2022/01/08 02:24:21;;;;;;;4.50;3.45;;;;;;;-2.80;53.99;96258.65;1679630;84;21003;-82
2022/01/08 02:26:47;;;;;;;4.62;4.15;;;;;;;-2.69;54.04;96254.94;1688516;84;21369;-82
2022/01/08 02:29:14;;;;;;;4.47;3.72;;;;;;;-2.62;54.17;96256.59;1701968;84;20985;-82
2022/01/08 02:31:40;;;;;;;4.40;4.00;;;;;;;-2.61;53.41;96250.59;1697392;83;21024;-82
2022/01/08 02:34:06;;;;;;;5.05;4.58;;;;;;;-2.59;53.65;96244.97;1688050;84;21367;-82
2022/01/08 02:36:33;;;;;;;4.25;3.95;;;;;;;-2.56;53.66;96258.74;1697124;83;21019;-82
2022/01/08 02:38:59;;;;;;;4.50;3.77;;;;;;;-2.57;53.28;96254.11;1694866;84;21540;-82
2022/01/08 02:41:27;;;;;;;5.05;4.30;;;;;;;-2.55;53.38;96256.09;1683512;83;20998;-82
2022/01/08 02:43:53;;;;;;;3.87;3.58;;;;;;;-2.55;53.66;96249.73;1676981;84;21417;-82
2022/01/08 02:46:22;;;;;;;3.60;3.30;;;;;;;-2.50;52.96;96237.96;1689595;84;21027;-82
2022/01/08 02:48:48;;;;;;;7.15;4.60;;;;;;;-2.43;52.45;96235.37;1679059;84;20998;-82
2022/01/08 02:51:14;;;;;;;4.20;3.83;;;;;;;-2.40;52.25;96231.33;1698840;84;21028;-82
2022/01/08 02:53:40;;;;;;;3.70;3.37;;;;;;;-2.35;52.45;96236.09;1693572;84;21027;-82
2022/01/08 02:56:05;;;;;;;7.00;4.78;;;;;;;-2.32;52.07;96225.23;1687918;84;20994;-82
2022/01/08 02:58:32;;;;;;;4.72;3.70;;;;;;;-2.33;51.93;96227.89;1694102;84;21007;-82
2022/01/08 03:00:58;;;;;;;4.15;3.60;;;;;;;-2.38;52.37;96230.77;1676058;84;21153;-82
2022/01/08 03:03:24;;;;;;;4.78;4.03;;;;;;;-2.41;52.53;96228.44;1699503;84;21063;-82
2022/01/08 03:05:50;;;;;;;4.55;3.72;;;;;;;-2.44;52.74;96216.75;1698962;82;21024;-82
2022/01/08 03:08:16;;;;;;;4.12;3.72;;;;;;;-2.46;51.76;96206.30;1690831;83;21150;-82
2022/01/08 03:10:42;;;;;;;4.03;3.62;;;;;;;-2.45;51.80;96201.55;1695216;84;21045;-82
2022/01/08 03:13:07;;;;;;;6.00;4.08;;;;;;;-2.39;51.15;96193.98;1697607;84;21327;-82
2022/01/08 03:15:36;;;;;;;5.30;4.12;;;;;;;-2.39;51.47;96199.88;1689899;84;20995;-82
2022/01/08 03:18:03;;;;;;;4.30;3.58;;;;;;;-2.40;51.45;96193.62;1659858;85;20984;-82
2022/01/08 03:20:29;;;;;;;4.37;3.17;;;;;;;-2.41;51.75;96194.09;1687619;84;21412;-83
2022/01/08 03:23:01;;;;;;;4.15;3.55;;;;;;;-2.40;50.47;96194.90;1663413;85;21040;-83
2022/01/08 03:25:22;;;;;;;3.87;3.58;;;;;;;-2.37;50.73;96202.31;1624038;87;21519;-82
2022/01/08 03:27:53;;;;;;;4.30;3.90;;;;;;;-2.36;50.83;96193.76;1629812;87;21029;-82
2022/01/08 03:30:17;;;;;;;5.92;4.17;;;;;;;-2.39;51.10;96184.61;1621092;87;21100;-82
2022/01/08 03:32:43;;;;;;;4.00;3.60;;;;;;;-2.36;50.90;96197.58;1665011;85;22045;-82
2022/01/08 03:35:09;;;;;;;4.83;4.22;;;;;;;-2.36;50.24;96197.58;1632434;86;20983;-82
2022/01/08 03:37:35;;;;;;;4.35;3.70;;;;;;;-2.35;50.72;96195.38;1666707;85;21008;-82
2022/01/08 03:40:00;;;;;;;3.62;3.33;;;;;;;-2.35;50.70;96187.75;1630335;87;21056;-82
2022/01/08 03:42:26;;;;;;;5.58;4.17;;;;;;;-2.35;50.44;96190.29;1660993;85;21012;-82
2022/01/08 03:44:52;;;;;;;4.15;3.85;;;;;;;-2.37;50.31;96192.13;1692772;83;21455;-82
2022/01/08 03:48:07;;;;;;;5.03;3.58;;;;;;;-2.38;51.10;96190.52;1689717;83;21020;-82
2022/01/08 03:49:48;;;;;;;5.92;5.42;;;;;;;-2.40;51.11;96187.27;1684056;84;21092;-82
2022/01/08 03:52:14;;;;;;;4.03;3.72;;;;;;;-2.40;51.15;96185.99;1694145;83;21528;-83
2022/01/08 03:54:40;;;;;;;4.65;3.67;;;;;;;-2.41;51.15;96178.82;1685325;84;21011;-82
2022/01/08 03:57:06;;;;;;;4.50;3.52;;;;;;;-2.41;51.20;96185.18;1687264;84;21140;-82
2022/01/08 03:59:31;;;;;;;4.30;3.52;;;;;;;-2.44;51.03;96182.39;1693557;83;21517;-82
2022/01/08 04:01:57;;;;;;;4.97;3.47;;;;;;;-2.45;51.36;96188.38;1692015;83;21083;-82
2022/01/08 04:04:23;;;;;;;4.75;4.28;;;;;;;-2.45;51.03;96184.55;1679167;84;21012;-83
2022/01/08 04:06:50;;;;;;;5.08;4.12;;;;;;;-2.48;51.51;96182.69;1657872;84;21025;-82
2022/01/08 04:09:16;;;;;;;4.47;3.83;;;;;;;-2.48;51.47;96182.23;1659682;86;21072;-82
2022/01/08 04:11:42;;;;;;;6.58;4.80;;;;;;;-2.48;50.91;96179.69;1604406;87;21012;-82
2022/01/08 04:14:09;;;;;;;5.33;3.87;;;;;;;-2.49;51.57;96172.16;1665016;86;21041;-82
2022/01/08 04:16:38;;;;;;;4.87;4.33;;;;;;;-2.53;52.24;96174.11;1628191;87;21051;-82
2022/01/08 04:19:03;;;;;;;4.80;4.20;;;;;;;-2.60;52.06;96178.02;1629196;86;21036;-82
2022/01/08 04:24:00;;;;;;;5.45;4.58;;;;;;;-2.57;52.06;96193.06;1619802;87;21036;-82
2022/01/08 04:26:27;;;;;;;4.53;3.52;;;;;;;-2.54;52.04;96186.48;1670408;86;20981;-82
2022/01/08 04:28:53;;;;;;;4.62;4.15;;;;;;;-2.57;52.03;96177.80;1698982;84;21011;-82
2022/01/08 04:31:19;;;;;;;5.67;5.05;;;;;;;-2.57;52.73;96181.61;1706362;84;20995;-82
2022/01/08 04:33:45;;;;;;;4.40;4.00;;;;;;;-2.56;52.72;96180.70;1701840;84;21104;-82
2022/01/08 04:36:11;;;;;;;4.87;4.08;;;;;;;-2.54;52.41;96185.67;1690940;84;21410;-82
2022/01/08 04:38:37;;;;;;;4.12;3.75;;;;;;;-2.51;52.79;96189.27;1696092;83;20992;-82
2022/01/08 04:41:03;;;;;;;4.62;4.28;;;;;;;-2.50;52.35;96185.34;1683124;84;21011;-82
2022/01/08 04:43:29;;;;;;;8.20;4.72;;;;;;;-2.50;52.78;96181.98;1684348;84;20970;-82
2022/01/08 04:45:55;;;;;;;6.10;4.58;;;;;;;-2.54;53.16;96177.58;1646521;86;21113;-82
2022/01/08 04:48:21;;;;;;;5.20;4.65;;;;;;;-2.55;53.02;96182.78;1618918;87;21132;-82
2022/01/08 04:50:46;;;;;;;5.22;4.40;;;;;;;-2.58;53.38;96184.27;1678000;83;21491;-82
2022/01/08 04:53:12;;;;;;;5.70;5.10;;;;;;;-2.56;53.43;96184.51;1687747;83;20992;-82
2022/01/08 04:55:38;;;;;;;4.40;3.83;;;;;;;-2.55;53.65;96183.59;1673405;83;20994;-82
2022/01/08 04:58:05;;;;;;;5.12;3.75;;;;;;;-2.55;53.40;96178.50;1684100;84;20988;-82
2022/01/08 05:00:31;;;;;;;4.70;3.55;;;;;;;-2.55;53.62;96182.78;1699759;84;21007;-82
2022/01/08 05:02:58;;;;;;;4.70;4.03;;;;;;;-2.55;53.78;96182.78;1696783;83;21044;-83
2022/01/08 05:05:23;;;;;;;4.20;3.80;;;;;;;-2.55;54.14;96180.23;1697810;84;21700;-82
2022/01/08 05:07:50;;;;;;;4.90;4.40;;;;;;;-2.56;53.84;96181.97;1693605;83;21122;-82
2022/01/08 05:10:16;;;;;;;4.95;4.20;;;;;;;-2.56;53.82;96183.70;1686878;84;21455;-83
2022/01/08 05:12:42;;;;;;;4.33;3.92;;;;;;;-2.59;53.75;96178.83;1688773;84;21070;-82
2022/01/08 05:15:08;;;;;;;5.08;4.22;;;;;;;-2.61;54.08;96171.28;1686502;84;21089;-82
2022/01/08 05:17:35;;;;;;;4.65;4.10;;;;;;;-2.62;53.97;96179.83;1693689;84;20989;-83
2022/01/08 05:20:05;;;;;;;4.20;3.80;;;;;;;-2.60;53.97;96172.12;1694698;83;20985;-82
2022/01/08 05:22:41;;;;;;;3.83;3.52;;;;;;;-2.61;54.18;96162.83;1702415;83;21467;-83
2022/01/08 05:24:58;;;;;;;5.50;4.45;;;;;;;-2.61;54.13;96172.55;1688970;84;21048;-82
2022/01/08 05:27:24;;;;;;;4.47;4.00;;;;;;;-2.64;54.41;96172.77;1699691;84;21379;-82
2022/01/08 05:29:51;;;;;;;4.65;4.10;;;;;;;-2.65;54.47;96172.41;1697675;84;20976;-82
2022/01/08 05:32:17;;;;;;;7.10;4.17;;;;;;;-2.65;54.57;96162.23;1703701;83;20973;-82
2022/01/08 05:34:49;;;;;;;4.72;4.33;;;;;;;-2.64;54.34;96156.23;1695117;83;21728;-82
2022/01/08 05:37:16;;;;;;;4.28;3.62;;;;;;;-2.61;54.73;96158.55;1698220;84;21112;-82
2022/01/08 05:39:42;;;;;;;4.40;4.00;;;;;;;-2.58;54.47;96152.01;1681486;84;20966;-82
2022/01/08 05:42:08;;;;;;;5.12;4.20;;;;;;;-2.57;54.68;96152.82;1701911;84;21064;-82
2022/01/08 05:44:33;;;;;;;3.90;3.50;;;;;;;-2.59;54.61;96136.86;1699267;84;20987;-82
2022/01/08 05:46:59;;;;;;;6.30;5.45;;;;;;;-2.59;54.61;96136.86;1704159;83;21012;-82
2022/01/08 05:49:25;;;;;;;6.08;4.55;;;;;;;-2.54;54.81;96143.23;1688740;83;21291;-82
2022/01/08 05:51:51;;;;;;;4.70;4.20;;;;;;;-2.51;54.99;96143.48;1694038;83;21383;-82
2022/01/08 05:54:17;;;;;;;4.83;3.92;;;;;;;-2.47;54.84;96150.78;1692349;84;20980;-82
2022/01/08 05:56:42;;;;;;;5.37;3.83;;;;;;;-2.45;54.66;96148.94;1686163;83;21033;-82
2022/01/08 05:59:08;;;;;;;4.30;3.90;;;;;;;-2.43;54.95;96148.86;1695583;84;21357;-83
2022/01/08 06:01:34;;;;;;;4.28;3.87;;;;;;;-2.38;55.14;96151.07;1688053;84;21071;-82
2022/01/08 06:04:03;;;;;;;4.92;3.85;;;;;;;-2.36;55.14;96147.49;1699125;84;21353;-82
2022/01/08 06:06:29;;;;;;;4.83;3.77;;;;;;;-2.35;55.20;96147.84;1694794;83;21130;-82
2022/01/08 06:08:55;;;;;;;3.95;3.50;;;;;;;-2.35;55.44;96151.66;1706748;83;21468;-82
2022/01/08 06:11:21;;;;;;;6.30;5.05;;;;;;;-2.32;55.26;96148.08;1703090;84;21052;-82
2022/01/08 06:13:47;;;;;;;4.42;3.92;;;;;;;-2.29;55.31;96150.41;1689949;84;21050;-82
2022/01/08 06:16:13;;;;;;;5.70;4.05;;;;;;;-2.26;55.61;96156.58;1689845;82;21051;-82
2022/01/08 06:18:38;;;;;;;4.22;3.83;;;;;;;-2.22;55.53;96160.52;1684506;85;21498;-82
2022/01/08 06:21:04;;;;;;;4.50;3.98;;;;;;;-2.21;55.83;96156.59;1684485;85;20976;-83
2022/01/08 06:23:30;;;;;;;7.12;3.92;;;;;;;-2.19;56.16;96159.02;1687174;84;21033;-82
2022/01/08 06:25:56;;;;;;;4.92;4.47;;;;;;;-2.16;55.69;96154.98;1702391;83;21494;-82
2022/01/08 06:28:22;;;;;;;4.28;3.90;;;;;;;-2.13;55.56;96156.03;1702671;84;21080;-82
2022/01/08 06:30:48;;;;;;;4.67;4.22;;;;;;;-2.13;55.68;96164.48;1702588;84;21043;-82
2022/01/08 06:33:15;;;;;;;5.60;4.12;;;;;;;-2.09;55.46;96161.74;1702784;83;21426;-82
2022/01/08 06:35:41;;;;;;;4.45;4.00;;;;;;;-2.07;55.75;96153.53;1688109;83;21509;-82
2022/01/08 06:38:07;;;;;;;6.95;4.58;;;;;;;-2.05;55.68;96166.50;1684332;85;21023;-82
2022/01/08 06:40:33;;;;;;;4.42;3.83;;;;;;;-2.04;55.45;96154.58;1684250;85;21007;-83
2022/01/08 06:42:58;;;;;;;7.25;4.28;;;;;;;-2.01;55.34;96156.44;1684293;85;21077;-82
2022/01/08 06:45:24;;;;;;;4.15;3.75;;;;;;;-2.01;55.70;96158.98;1692855;82;21435;-82
2022/01/08 06:47:50;;;;;;;4.37;3.98;;;;;;;-1.97;55.58;96164.66;1688210;84;21497;-82
2022/01/08 06:50:16;;;;;;;3.58;3.27;;;;;;;-1.94;55.41;96165.27;1653628;86;21036;-82
2022/01/08 06:52:42;;;;;;;6.10;4.47;;;;;;;-1.91;55.66;96167.59;1702942;84;20973;-82
2022/01/08 06:55:07;;;;;;;3.83;3.22;;;;;;;-1.87;55.78;96164.36;1702142;83;20976;-82
2022/01/08 06:57:33;;;;;;;6.20;4.85;;;;;;;-1.83;55.68;96163.20;1684373;85;21475;-83
2022/01/08 07:00:01;;;;;;;4.12;3.62;;;;;;;-1.84;55.86;96167.48;1684166;85;21410;-83
2022/01/08 07:02:26;;;;;;;4.65;3.50;;;;;;;-1.78;55.62;96162.90;1686300;82;20996;-82
2022/01/08 07:04:52;;;;;;;3.90;3.30;;;;;;;-1.79;55.73;96162.09;1699114;83;21464;-82
2022/01/08 07:07:18;;;;;;;6.97;4.33;;;;;;;-1.79;55.83;96162.09;1666094;84;21146;-82
2022/01/08 07:09:45;;;;;;;4.37;3.98;;;;;;;-1.82;55.57;96164.37;1652448;86;21004;-82
2022/01/08 07:12:10;;;;;;;4.08;3.17;;;;;;;-1.81;55.77;96157.08;1652760;86;20992;-82
2022/01/08 07:14:36;;;;;;;5.33;4.17;;;;;;;-1.78;55.86;96157.80;1630503;86;20968;-82
2022/01/08 07:17:03;;;;;;;5.03;3.80;;;;;;;-1.77;55.64;96156.88;1650213;86;21052;-83
2022/01/08 07:19:29;;;;;;;5.45;4.17;;;;;;;-1.77;55.63;96164.52;1634317;87;20996;-82
2022/01/08 07:21:54;;;;;;;5.97;4.65;;;;;;;-1.77;55.96;96156.88;1646513;87;20999;-83
2022/01/08 07:24:20;;;;;;;4.30;3.90;;;;;;;-1.75;56.15;96148.20;1627335;88;21337;-82
2022/01/08 07:26:46;;;;;;;4.25;3.70;;;;;;;-1.71;56.33;96150.05;1683956;85;21039;-82
2022/01/08 07:29:12;;;;;;;4.70;4.00;;;;;;;-1.69;56.75;96133.73;1673102;84;21011;-82
2022/01/08 07:31:37;;;;;;;5.22;4.03;;;;;;;-1.65;56.57;96145.31;1654988;86;21378;-83
2022/01/08 07:34:03;;;;;;;7.20;4.60;;;;;;;-1.60;56.27;96134.80;1626753;87;21028;-82
2022/01/08 07:36:30;;;;;;;4.95;4.03;;;;;;;-1.56;56.92;96139.55;1654183;87;21039;-82
2022/01/08 07:38:55;;;;;;;5.53;4.35;;;;;;;-1.50;56.61;96140.82;1654609;86;20980;-82
2022/01/08 07:41:21;;;;;;;5.28;4.25;;;;;;;-1.47;56.71;96152.52;1683745;85;21054;-82
2022/01/08 07:43:47;;;;;;;4.50;4.10;;;;;;;-1.48;56.78;96146.61;1683975;85;21015;-82
2022/01/08 07:46:13;;;;;;;6.15;4.65;;;;;;;-1.51;56.57;96154.48;1682799;84;22061;-82
2022/01/08 07:48:40;;;;;;;4.97;4.42;;;;;;;-1.51;56.98;96148.93;1679403;85;21024;-82
2022/01/08 07:51:06;;;;;;;5.55;3.98;;;;;;;-1.52;56.56;96147.77;1677612;84;21000;-82
2022/01/08 07:53:32;;;;;;;6.45;4.90;;;;;;;-1.61;56.52;96148.00;1659209;86;21019;-82
2022/01/08 07:55:58;;;;;;;6.90;4.78;;;;;;;-1.62;56.61;96154.48;1659297;86;21051;-82
2022/01/08 07:58:23;;;;;;;7.65;5.22;;;;;;;-1.65;57.00;96154.69;1659217;86;20992;-82
2022/01/08 08:00:50;;;;;;;6.58;5.47;;;;;;;-1.72;56.72;96154.34;1665249;84;20975;-82
2022/01/08 08:03:19;;;;;;;6.53;4.30;;;;;;;-1.73;57.14;96150.17;1669209;83;21071;-82
2022/01/08 08:05:45;;;;;;;6.80;4.72;;;;;;;-1.69;57.07;96160.48;1674711;84;20965;-82
2022/01/08 08:08:16;;;;;;;6.33;4.20;;;;;;;-1.67;57.12;96155.27;1705221;83;21063;-83
2022/01/08 08:10:44;;;;;;;7.37;5.17;;;;;;;-1.64;57.27;96152.48;1720421;82;20980;-82
2022/01/08 08:13:10;;;;;;;5.78;4.33;;;;;;;-1.67;57.34;96149.70;1720346;83;20967;-82
2022/01/08 08:15:35;;;;;;;6.97;5.37;;;;;;;-1.65;57.51;96152.95;1729637;82;21350;-82
2022/01/08 08:18:01;;;;;;;5.47;4.95;;;;;;;-1.62;57.60;96155.30;1707231;84;20988;-82
2022/01/08 08:20:27;;;;;;;5.58;4.05;;;;;;;-1.60;57.44;96149.63;1722295;82;21003;-82
2022/01/08 08:22:53;;;;;;;5.25;4.67;;;;;;;-1.55;57.51;96139.09;1685520;84;21108;-82
2022/01/08 08:25:19;;;;;;;5.03;4.50;;;;;;;-1.55;57.61;96144.99;1681250;85;21412;-82
2022/01/08 08:27:44;;;;;;;6.42;4.03;;;;;;;-1.51;58.29;96141.75;1681346;85;20941;-83
2022/01/08 08:30:11;;;;;;;5.40;4.65;;;;;;;-1.45;58.27;96143.05;1650395;87;20938;-82
2022/01/08 08:32:37;;;;;;;4.62;4.15;;;;;;;-1.43;57.79;96150.93;1651892;86;21028;-82
2022/01/08 08:35:04;;;;;;;6.17;5.12;;;;;;;-1.37;57.64;96142.01;1714811;84;20973;-83
2022/01/08 08:37:29;;;;;;;6.58;5.25;;;;;;;-1.32;58.26;96145.02;1703982;83;21033;-82
2022/01/08 08:39:55;;;;;;;6.42;4.50;;;;;;;-1.25;58.55;96148.74;1691740;85;21032;-82
2022/01/08 08:42:21;;;;;;;5.90;4.53;;;;;;;-1.18;58.69;96152.45;1681846;85;21344;-83
2022/01/08 08:44:47;;;;;;;5.62;4.62;;;;;;;-1.12;58.22;96153.74;1699542;84;21020;-81
2022/01/08 08:47:12;;;;;;;5.47;4.70;;;;;;;-1.02;58.19;96148.27;1693667;83;20996;-81
2022/01/08 08:49:38;;;;;;;7.42;5.72;;;;;;;-0.92;58.57;96153.04;1679981;85;21024;-81
2022/01/08 08:52:04;;;;;;;7.28;6.50;;;;;;;-0.83;57.75;96166.34;1657209;87;21072;-81
2022/01/08 08:54:30;;;;;;;5.62;4.67;;;;;;;-0.78;58.05;96161.73;1695460;83;21055;-81
2022/01/08 08:56:56;;;;;;;4.40;3.92;;;;;;;-0.72;58.24;96157.89;1653248;86;22341;-81
2022/01/08 08:59:23;;;;;;;6.70;4.95;;;;;;;-0.68;57.85;96156.72;1690705;84;21010;-81
2022/01/08 09:01:49;;;;;;;6.05;4.80;;;;;;;-0.62;57.84;96165.19;1707549;84;21019;-81
2022/01/08 09:04:15;;;;;;;5.78;3.90;;;;;;;-0.56;57.69;96163.90;1685160;83;21011;-82
2022/01/08 09:06:41;;;;;;;6.90;4.20;;;;;;;-0.54;57.50;96165.40;1676977;84;20965;-81
2022/01/08 09:09:06;;;;;;;6.42;4.35;;;;;;;-0.55;57.32;96161.69;1688648;84;21433;-81
2022/01/08 09:11:34;;;;;;;5.90;3.87;;;;;;;-0.56;57.70;96151.95;1662752;85;20979;-81
2022/01/08 09:14:00;;;;;;;5.25;3.85;;;;;;;-0.50;57.83;96152.73;1666275;85;20972;-81
2022/01/08 09:16:25;;;;;;;6.30;4.22;;;;;;;-0.49;57.50;96153.11;1702989;83;21032;-81
2022/01/08 09:18:53;;;;;;;3.42;3.12;;;;;;;-0.46;57.35;96149.05;1666962;84;21151;-81
2022/01/08 09:21:19;;;;;;;4.83;3.60;;;;;;;-0.43;57.41;96143.69;1683826;85;21514;-81
2022/01/08 09:23:44;;;;;;;5.95;4.45;;;;;;;-0.37;57.70;96150.05;1684047;85;21008;-81
2022/01/08 09:26:10;;;;;;;4.42;3.05;;;;;;;-0.31;57.65;96154.23;1659877;84;20981;-81
2022/01/08 09:28:36;;;;;;;5.75;4.30;;;;;;;-0.28;56.99;96150.62;1712614;83;21007;-81
2022/01/08 09:31:03;;;;;;;6.58;4.47;;;;;;;-0.29;57.36;96152.83;1720416;83;20988;-81
2022/01/08 09:33:30;;;;;;;6.40;4.50;;;;;;;-0.24;57.01;96160.92;1722705;83;20988;-81
2022/01/08 09:35:55;;;;;;;5.42;4.20;;;;;;;-0.27;56.81;96158.63;1723116;83;21044;-81
2022/01/08 09:38:21;;;;;;;4.42;3.90;;;;;;;-0.26;56.99;96154.33;1718797;83;21427;-81
2022/01/08 09:40:47;;;;;;;6.40;3.70;;;;;;;-0.27;57.11;96148.41;1710947;83;20960;-81
2022/01/08 09:43:13;;;;;;;5.67;3.65;;;;;;;-0.21;57.31;96166.25;1721115;83;20984;-81
2022/01/08 09:45:38;;;;;;;6.47;4.92;;;;;;;-0.19;57.13;96156.73;1686427;83;21056;-81
2022/01/08 09:48:05;;;;;;;4.85;4.35;;;;;;;-0.15;57.27;96153.02;1712158;83;21079;-81
2022/01/08 09:50:30;;;;;;;6.37;4.58;;;;;;;-0.11;57.34;96165.42;1671152;84;21055;-81
2022/01/08 09:52:58;;;;;;;7.50;5.53;;;;;;;-0.10;57.58;96161.93;1673517;85;21489;-81
2022/01/08 09:55:26;;;;;;;10.38;6.90;;;;;;;-0.07;57.65;96157.85;1683747;85;21035;-81
2022/01/08 09:57:53;;;;;;;7.70;5.08;;;;;;;-0.03;57.66;96158.41;1686745;85;21008;-81
2022/01/08 10:00:20;;;;;;;5.42;4.08;;;;;;;0.01;57.73;96159.00;1673209;85;21059;-81
2022/01/08 10:02:46;;;;;;;6.65;5.05;;;;;;;0.04;57.63;96154.92;1701311;83;21091;-81
2022/01/08 10:05:15;;;;;;;5.72;4.00;;;;;;;0.10;58.18;96151.86;1694444;84;21099;-81
2022/01/08 10:07:41;;;;;;;8.35;4.95;;;;;;;0.13;58.04;96149.06;1676510;85;21055;-81
2022/01/08 10:10:13;;;;;;;6.17;3.72;;;;;;;0.17;58.35;96145.34;1654924;85;21065;-82
2022/01/08 10:12:51;;;;;;;4.15;3.72;;;;;;;0.19;57.93;96148.59;1674803;85;21075;-82
2022/01/08 10:18:29;;;;;;;4.25;3.35;;;;;;;0.23;58.21;96144.37;1736423;82;21459;-83
2022/01/08 10:20:55;;;;;;;7.15;5.17;;;;;;;0.27;58.33;96140.62;1681917;85;20999;-83
2022/01/08 10:23:30;;;;;;;6.65;4.30;;;;;;;0.28;58.44;96144.80;1706494;83;21057;-83
2022/01/08 10:26:03;;;;;;;5.87;4.12;;;;;;;0.32;58.17;96145.83;1705048;84;20980;-83
2022/01/08 10:28:51;;;;;;;5.55;4.20;;;;;;;0.34;58.18;96143.52;1681753;84;21037;-83
2022/01/08 10:31:27;;;;;;;5.45;4.00;;;;;;;0.38;58.09;96142.33;1712636;83;20980;-83
2022/01/08 10:34:11;;;;;;;5.15;3.02;;;;;;;0.42;58.57;96144.16;1704904;83;21076;-83
2022/01/08 10:36:56;;;;;;;5.05;4.30;;;;;;;0.48;58.47;96152.13;1705149;83;21467;-83
2022/01/08 10:39:32;;;;;;;5.87;3.95;;;;;;;0.48;57.87;96146.20;1691567;84;21012;-83
2022/01/08 10:42:00;;;;;;;6.87;4.87;;;;;;;0.48;57.92;96141.09;1705253;84;21020;-83
2022/01/08 10:44:28;;;;;;;7.90;7.15;;;;;;;0.51;57.69;96138.30;1694025;83;20973;-83
2022/01/08 10:46:59;;;;;;;7.37;5.80;;;;;;;0.53;57.92;96126.20;1687475;85;21019;-83
2022/01/08 10:49:38;;;;;;;9.30;5.12;;;;;;;0.56;57.72;96128.50;1688109;85;21377;-83
2022/01/08 10:52:07;;;;;;;7.05;4.90;;;;;;;0.56;57.43;96124.20;1689443;85;20995;-83
2022/01/08 10:54:36;;;;;;;4.17;3.50;;;;;;;0.60;57.61;96127.30;1700078;84;21004;-83
2022/01/08 10:57:04;;;;;;;7.40;4.80;;;;;;;0.63;57.73;96128.80;1726698;83;20948;-83
2022/01/08 10:59:31;;;;;;;7.87;5.85;;;;;;;0.62;57.63;96129.73;1713899;83;21370;-83
2022/01/08 11:02:09;;;;;;;6.05;4.72;;;;;;;0.62;57.54;96133.57;1705265;83;20977;-83
2022/01/08 11:04:50;;;;;;;8.25;5.92;;;;;;;0.58;57.61;96129.99;1698754;83;21000;-83
2022/01/08 11:07:20;;;;;;;5.40;4.47;;;;;;;0.54;57.94;96122.24;1690983;84;21054;-83
2022/01/08 11:09:48;;;;;;;7.70;4.80;;;;;;;0.55;57.91;96120.02;1701086;84;21418;-83
2022/01/08 11:12:20;;;;;;;7.78;6.83;;;;;;;0.59;57.67;96125.69;1688359;85;21133;-83
2022/01/08 11:17:35;;;;;;;7.67;5.67;;;;;;;0.51;57.66;96111.00;1658866;86;20965;-83
2022/01/08 11:20:14;;;;;;;8.25;4.87;;;;;;;0.52;57.39;96115.17;1722501;83;21019;-83
2022/01/08 11:22:52;;;;;;;8.48;5.83;;;;;;;0.52;57.08;96106.22;1690237;83;21009;-83
2022/01/08 11:25:36;;;;;;;5.95;4.03;;;;;;;0.52;57.61;96109.25;1681377;85;21012;-83
2022/01/08 11:28:13;;;;;;;6.47;4.83;;;;;;;0.54;57.08;96105.63;1707495;83;21048;-83
2022/01/08 11:30:49;;;;;;;6.17;5.20;;;;;;;0.57;57.29;96098.97;1717992;83;21039;-82
2022/01/08 11:33:27;;;;;;;5.22;4.55;;;;;;;0.62;57.50;96091.37;1707279;84;21063;-83
2022/01/08 11:35:51;;;;;;;7.62;4.90;;;;;;;0.66;57.77;96098.70;1706870;84;21008;-83
2022/01/08 11:38:20;;;;;;;6.70;4.42;;;;;;;0.69;57.63;96088.67;1706189;83;21032;-83
2022/01/08 11:40:50;;;;;;;5.20;3.77;;;;;;;0.73;57.65;96083.64;1725683;83;20984;-83
2022/01/08 11:43:19;;;;;;;5.92;4.50;;;;;;;0.74;57.65;96086.06;1690055;85;21358;-83
2022/01/08 11:46:03;;;;;;;7.70;4.78;;;;;;;0.77;57.54;96095.22;1696353;84;21332;-83
2022/01/08 11:48:40;;;;;;;7.80;5.12;;;;;;;0.76;57.36;96083.37;1684573;84;21060;-83
2022/01/08 11:51:06;;;;;;;7.55;4.65;;;;;;;0.68;57.45;96092.98;1677334;83;21067;-83
2022/01/08 11:53:35;;;;;;;7.60;5.90;;;;;;;0.68;57.39;96096.00;1670165;85;21447;-83
2022/01/08 11:56:05;;;;;;;8.90;5.00;;;;;;;0.66;57.53;96095.33;1657010;86;21036;-83
2022/01/08 11:58:34;;;;;;;8.23;5.58;;;;;;;0.67;57.67;96096.95;1658421;86;21470;-83